sensor_id;sensor_type;location;lat;lon;timestamp;P1;durP1;ratioP1;P2;durP2;ratioP2
2868;SDS011;1442;47.448;8.582;2024-02-26T00:01:44;2.42;;;1.63;;
2868;SDS011;1442;47.448;8.582;2024-02-26T00:04:11;2.88;;;2.00;;
2868;SDS011;1442;47.448;8.582;2024-02-26T00:06:39;2.30;;;1.30;;
2868;SDS011;1442;47.448;8.582;2024-02-26T00:09:06;2.22;;;1.50;;
2868;SDS011;1442;47.448;8.582;2024-02-26T00:11:33;2.00;;;1.60;;
2868;SDS011;1442;47.448;8.582;2024-02-26T00:14:00;4.10;;;1.63;;
2868;SDS011;1442;47.448;8.582;2024-02-26T00:16:26;3.38;;;1.88;;
2868;SDS011;1442;47.448;8.582;2024-02-26T00:18:53;2.00;;;1.50;;
2868;SDS011;1442;47.448;8.582;2024-02-26T00:21:20;1.80;;;1.42;;
2868;SDS011;1442;47.448;8.582;2024-02-26T00:23:48;3.15;;;1.80;;
2868;SDS011;1442;47.448;8.582;2024-02-26T00:26:16;1.83;;;1.55;;
2868;SDS011;1442;47.448;8.582;2024-02-26T00:28:43;2.30;;;1.60;;
2868;SDS011;1442;47.448;8.582;2024-02-26T00:31:09;2.45;;;1.90;;
2868;SDS011;1442;47.448;8.582;2024-02-26T00:33:36;4.22;;;1.80;;
2868;SDS011;1442;47.448;8.582;2024-02-26T00:36:04;1.77;;;1.40;;
2868;SDS011;1442;47.448;8.582;2024-02-26T00:38:31;3.83;;;1.60;;
2868;SDS011;1442;47.448;8.582;2024-02-26T00:40:59;2.13;;;1.48;;
2868;SDS011;1442;47.448;8.582;2024-02-26T00:43:26;4.35;;;2.08;;
2868;SDS011;1442;47.448;8.582;2024-02-26T00:45:53;2.40;;;1.55;;
2868;SDS011;1442;47.448;8.582;2024-02-26T00:48:19;2.78;;;1.85;;
2868;SDS011;1442;47.448;8.582;2024-02-26T00:50:46;2.00;;;1.55;;
2868;SDS011;1442;47.448;8.582;2024-02-26T00:53:13;2.90;;;1.80;;
2868;SDS011;1442;47.448;8.582;2024-02-26T00:55:40;2.83;;;2.00;;
2868;SDS011;1442;47.448;8.582;2024-02-26T00:58:08;3.25;;;1.58;;
2868;SDS011;1442;47.448;8.582;2024-02-26T01:00:35;2.78;;;1.67;;
2868;SDS011;1442;47.448;8.582;2024-02-26T01:03:02;2.30;;;1.50;;
2868;SDS011;1442;47.448;8.582;2024-02-26T01:05:29;2.88;;;1.50;;
2868;SDS011;1442;47.448;8.582;2024-02-26T01:07:56;2.15;;;1.48;;
2868;SDS011;1442;47.448;8.582;2024-02-26T01:10:23;2.63;;;1.63;;
2868;SDS011;1442;47.448;8.582;2024-02-26T01:12:50;1.50;;;1.40;;
2868;SDS011;1442;47.448;8.582;2024-02-26T01:15:18;3.33;;;1.80;;
2868;SDS011;1442;47.448;8.582;2024-02-26T01:17:48;3.20;;;1.98;;
2868;SDS011;1442;47.448;8.582;2024-02-26T01:20:15;2.83;;;1.88;;
2868;SDS011;1442;47.448;8.582;2024-02-26T01:22:42;2.92;;;1.73;;
2868;SDS011;1442;47.448;8.582;2024-02-26T01:25:09;1.95;;;1.75;;
2868;SDS011;1442;47.448;8.582;2024-02-26T01:27:36;4.53;;;1.98;;
2868;SDS011;1442;47.448;8.582;2024-02-26T01:30:03;2.50;;;1.52;;
2868;SDS011;1442;47.448;8.582;2024-02-26T01:32:32;5.07;;;2.00;;
2868;SDS011;1442;47.448;8.582;2024-02-26T01:35:01;4.03;;;1.90;;
2868;SDS011;1442;47.448;8.582;2024-02-26T01:37:28;6.85;;;1.92;;
2868;SDS011;1442;47.448;8.582;2024-02-26T01:39:54;2.38;;;1.83;;
2868;SDS011;1442;47.448;8.582;2024-02-26T01:42:21;2.78;;;1.85;;
2868;SDS011;1442;47.448;8.582;2024-02-26T01:44:48;3.30;;;1.48;;
2868;SDS011;1442;47.448;8.582;2024-02-26T01:47:15;2.17;;;1.67;;
2868;SDS011;1442;47.448;8.582;2024-02-26T01:49:43;2.17;;;1.48;;
2868;SDS011;1442;47.448;8.582;2024-02-26T01:52:10;1.92;;;1.35;;
2868;SDS011;1442;47.448;8.582;2024-02-26T01:54:37;2.25;;;1.60;;
2868;SDS011;1442;47.448;8.582;2024-02-26T01:57:05;2.85;;;1.73;;
2868;SDS011;1442;47.448;8.582;2024-02-26T01:59:33;4.28;;;1.67;;
2868;SDS011;1442;47.448;8.582;2024-02-26T02:02:01;5.75;;;1.90;;
2868;SDS011;1442;47.448;8.582;2024-02-26T02:04:31;3.10;;;2.00;;
2868;SDS011;1442;47.448;8.582;2024-02-26T02:06:59;3.42;;;1.80;;
2868;SDS011;1442;47.448;8.582;2024-02-26T02:09:27;3.35;;;2.30;;
2868;SDS011;1442;47.448;8.582;2024-02-26T02:11:54;4.05;;;2.00;;
2868;SDS011;1442;47.448;8.582;2024-02-26T02:14:22;3.20;;;1.77;;
2868;SDS011;1442;47.448;8.582;2024-02-26T02:16:48;1.90;;;1.60;;
2868;SDS011;1442;47.448;8.582;2024-02-26T02:19:15;3.85;;;2.10;;
2868;SDS011;1442;47.448;8.582;2024-02-26T02:21:43;3.72;;;1.92;;
2868;SDS011;1442;47.448;8.582;2024-02-26T02:24:10;4.53;;;1.88;;
2868;SDS011;1442;47.448;8.582;2024-02-26T02:26:37;2.10;;;1.83;;
2868;SDS011;1442;47.448;8.582;2024-02-26T02:29:04;2.65;;;1.73;;
2868;SDS011;1442;47.448;8.582;2024-02-26T02:31:32;3.42;;;1.80;;
2868;SDS011;1442;47.448;8.582;2024-02-26T02:34:00;1.58;;;1.48;;
2868;SDS011;1442;47.448;8.582;2024-02-26T02:36:27;2.58;;;1.73;;
2868;SDS011;1442;47.448;8.582;2024-02-26T02:38:55;2.67;;;1.52;;
2868;SDS011;1442;47.448;8.582;2024-02-26T02:41:21;2.53;;;1.65;;
2868;SDS011;1442;47.448;8.582;2024-02-26T02:43:48;4.78;;;1.75;;
2868;SDS011;1442;47.448;8.582;2024-02-26T02:46:15;1.40;;;1.27;;
2868;SDS011;1442;47.448;8.582;2024-02-26T02:48:42;2.13;;;1.40;;
2868;SDS011;1442;47.448;8.582;2024-02-26T02:51:09;1.88;;;1.20;;
2868;SDS011;1442;47.448;8.582;2024-02-26T02:53:36;1.95;;;1.30;;
2868;SDS011;1442;47.448;8.582;2024-02-26T02:56:04;1.10;;;1.00;;
2868;SDS011;1442;47.448;8.582;2024-02-26T02:58:31;4.10;;;1.17;;
2868;SDS011;1442;47.448;8.582;2024-02-26T03:00:58;2.75;;;1.48;;
2868;SDS011;1442;47.448;8.582;2024-02-26T03:03:25;1.88;;;1.58;;
2868;SDS011;1442;47.448;8.582;2024-02-26T03:05:53;1.55;;;1.40;;
2868;SDS011;1442;47.448;8.582;2024-02-26T03:08:20;1.48;;;1.30;;
2868;SDS011;1442;47.448;8.582;2024-02-26T03:10:47;2.05;;;1.00;;
2868;SDS011;1442;47.448;8.582;2024-02-26T03:13:15;1.73;;;1.10;;
2868;SDS011;1442;47.448;8.582;2024-02-26T03:15:42;2.08;;;1.35;;
2868;SDS011;1442;47.448;8.582;2024-02-26T03:18:09;1.73;;;1.23;;
2868;SDS011;1442;47.448;8.582;2024-02-26T03:20:36;1.95;;;1.38;;
2868;SDS011;1442;47.448;8.582;2024-02-26T03:23:03;4.10;;;1.52;;
2868;SDS011;1442;47.448;8.582;2024-02-26T03:25:30;1.00;;;0.90;;
2868;SDS011;1442;47.448;8.582;2024-02-26T03:27:56;1.50;;;1.10;;
2868;SDS011;1442;47.448;8.582;2024-02-26T03:30:24;1.30;;;1.02;;
2868;SDS011;1442;47.448;8.582;2024-02-26T03:32:51;2.78;;;1.05;;
2868;SDS011;1442;47.448;8.582;2024-02-26T03:35:18;1.50;;;1.10;;
2868;SDS011;1442;47.448;8.582;2024-02-26T03:37:45;2.45;;;1.20;;
2868;SDS011;1442;47.448;8.582;2024-02-26T03:40:13;1.05;;;0.90;;
2868;SDS011;1442;47.448;8.582;2024-02-26T03:42:40;1.30;;;1.20;;
2868;SDS011;1442;47.448;8.582;2024-02-26T03:45:07;1.13;;;0.88;;
2868;SDS011;1442;47.448;8.582;2024-02-26T03:47:37;1.23;;;1.13;;
2868;SDS011;1442;47.448;8.582;2024-02-26T03:50:05;1.90;;;1.33;;
2868;SDS011;1442;47.448;8.582;2024-02-26T03:52:32;2.35;;;1.02;;
2868;SDS011;1442;47.448;8.582;2024-02-26T03:55:00;1.63;;;1.05;;
2868;SDS011;1442;47.448;8.582;2024-02-26T03:57:26;1.20;;;1.10;;
2868;SDS011;1442;47.448;8.582;2024-02-26T03:59:53;1.83;;;1.00;;
2868;SDS011;1442;47.448;8.582;2024-02-26T04:02:20;1.70;;;1.35;;
2868;SDS011;1442;47.448;8.582;2024-02-26T04:04:49;2.05;;;1.40;;
2868;SDS011;1442;47.448;8.582;2024-02-26T04:07:16;2.33;;;1.50;;
2868;SDS011;1442;47.448;8.582;2024-02-26T04:09:42;3.08;;;1.45;;
2868;SDS011;1442;47.448;8.582;2024-02-26T04:12:09;1.63;;;1.10;;
2868;SDS011;1442;47.448;8.582;2024-02-26T04:14:36;1.77;;;1.30;;
2868;SDS011;1442;47.448;8.582;2024-02-26T04:17:03;1.48;;;1.10;;
2868;SDS011;1442;47.448;8.582;2024-02-26T04:19:30;1.67;;;1.17;;
2868;SDS011;1442;47.448;8.582;2024-02-26T04:21:58;3.30;;;1.33;;
2868;SDS011;1442;47.448;8.582;2024-02-26T04:24:26;3.42;;;1.58;;
2868;SDS011;1442;47.448;8.582;2024-02-26T04:26:52;2.78;;;1.30;;
2868;SDS011;1442;47.448;8.582;2024-02-26T04:29:19;2.00;;;1.23;;
2868;SDS011;1442;47.448;8.582;2024-02-26T04:31:46;3.90;;;1.48;;
2868;SDS011;1442;47.448;8.582;2024-02-26T04:34:13;4.18;;;1.60;;
2868;SDS011;1442;47.448;8.582;2024-02-26T04:36:39;3.38;;;1.60;;
2868;SDS011;1442;47.448;8.582;2024-02-26T04:39:08;2.03;;;1.50;;
2868;SDS011;1442;47.448;8.582;2024-02-26T04:41:36;2.97;;;1.40;;
2868;SDS011;1442;47.448;8.582;2024-02-26T04:44:03;3.25;;;1.48;;
2868;SDS011;1442;47.448;8.582;2024-02-26T04:46:30;2.42;;;1.38;;
2868;SDS011;1442;47.448;8.582;2024-02-26T04:48:56;1.52;;;0.95;;
2868;SDS011;1442;47.448;8.582;2024-02-26T04:51:23;1.67;;;1.10;;
2868;SDS011;1442;47.448;8.582;2024-02-26T04:53:50;2.05;;;1.20;;
2868;SDS011;1442;47.448;8.582;2024-02-26T04:56:20;2.58;;;1.30;;
2868;SDS011;1442;47.448;8.582;2024-02-26T04:58:46;1.88;;;1.20;;
2868;SDS011;1442;47.448;8.582;2024-02-26T05:01:13;2.63;;;1.20;;
2868;SDS011;1442;47.448;8.582;2024-02-26T05:03:41;1.63;;;1.15;;
2868;SDS011;1442;47.448;8.582;2024-02-26T05:06:08;2.00;;;1.23;;
2868;SDS011;1442;47.448;8.582;2024-02-26T05:08:35;1.40;;;1.10;;
2868;SDS011;1442;47.448;8.582;2024-02-26T05:11:03;4.57;;;1.35;;
2868;SDS011;1442;47.448;8.582;2024-02-26T05:13:32;1.02;;;0.95;;
2868;SDS011;1442;47.448;8.582;2024-02-26T05:15:59;1.67;;;0.90;;
2868;SDS011;1442;47.448;8.582;2024-02-26T05:18:25;5.55;;;1.08;;
2868;SDS011;1442;47.448;8.582;2024-02-26T05:20:52;2.53;;;1.30;;
2868;SDS011;1442;47.448;8.582;2024-02-26T05:23:19;1.80;;;1.30;;
2868;SDS011;1442;47.448;8.582;2024-02-26T05:25:45;1.15;;;1.05;;
2868;SDS011;1442;47.448;8.582;2024-02-26T05:28:13;3.13;;;1.00;;
2868;SDS011;1442;47.448;8.582;2024-02-26T05:30:42;1.65;;;1.38;;
2868;SDS011;1442;47.448;8.582;2024-02-26T05:33:08;1.35;;;1.00;;
2868;SDS011;1442;47.448;8.582;2024-02-26T05:35:35;2.15;;;1.00;;
2868;SDS011;1442;47.448;8.582;2024-02-26T05:38:02;1.55;;;1.20;;
2868;SDS011;1442;47.448;8.582;2024-02-26T05:40:29;3.58;;;1.17;;
2868;SDS011;1442;47.448;8.582;2024-02-26T05:42:55;1.52;;;1.30;;
2868;SDS011;1442;47.448;8.582;2024-02-26T05:45:22;1.20;;;1.10;;
2868;SDS011;1442;47.448;8.582;2024-02-26T05:47:50;2.53;;;1.33;;
2868;SDS011;1442;47.448;8.582;2024-02-26T05:50:17;2.28;;;1.40;;
2868;SDS011;1442;47.448;8.582;2024-02-26T05:52:43;1.83;;;1.33;;
2868;SDS011;1442;47.448;8.582;2024-02-26T05:55:10;1.73;;;1.10;;
2868;SDS011;1442;47.448;8.582;2024-02-26T05:57:38;5.05;;;1.80;;
2868;SDS011;1442;47.448;8.582;2024-02-26T06:00:05;2.28;;;1.40;;
2868;SDS011;1442;47.448;8.582;2024-02-26T06:02:33;1.63;;;1.02;;
2868;SDS011;1442;47.448;8.582;2024-02-26T06:05:01;5.13;;;1.13;;
2868;SDS011;1442;47.448;8.582;2024-02-26T06:07:28;2.53;;;1.20;;
2868;SDS011;1442;47.448;8.582;2024-02-26T06:09:55;2.88;;;1.17;;
2868;SDS011;1442;47.448;8.582;2024-02-26T06:12:21;4.80;;;1.40;;
2868;SDS011;1442;47.448;8.582;2024-02-26T06:14:48;4.88;;;1.40;;
2868;SDS011;1442;47.448;8.582;2024-02-26T06:17:15;6.80;;;1.05;;
2868;SDS011;1442;47.448;8.582;2024-02-26T06:19:42;3.67;;;1.30;;
2868;SDS011;1442;47.448;8.582;2024-02-26T06:22:10;4.55;;;1.48;;
2868;SDS011;1442;47.448;8.582;2024-02-26T06:24:37;2.58;;;1.70;;
2868;SDS011;1442;47.448;8.582;2024-02-26T06:27:04;4.65;;;1.83;;
2868;SDS011;1442;47.448;8.582;2024-02-26T06:29:31;1.52;;;1.17;;
2868;SDS011;1442;47.448;8.582;2024-02-26T06:31:57;4.70;;;1.30;;
2868;SDS011;1442;47.448;8.582;2024-02-26T06:34:24;3.58;;;1.70;;
2868;SDS011;1442;47.448;8.582;2024-02-26T06:36:51;2.55;;;1.30;;
2868;SDS011;1442;47.448;8.582;2024-02-26T06:39:19;4.28;;;1.30;;
2868;SDS011;1442;47.448;8.582;2024-02-26T06:41:46;3.17;;;1.50;;
2868;SDS011;1442;47.448;8.582;2024-02-26T06:44:13;1.90;;;1.67;;
2868;SDS011;1442;47.448;8.582;2024-02-26T06:46:40;3.58;;;1.60;;
2868;SDS011;1442;47.448;8.582;2024-02-26T06:49:06;2.15;;;1.55;;
2868;SDS011;1442;47.448;8.582;2024-02-26T06:51:33;3.50;;;1.50;;
2868;SDS011;1442;47.448;8.582;2024-02-26T06:54:00;1.70;;;1.50;;
2868;SDS011;1442;47.448;8.582;2024-02-26T06:56:28;2.33;;;1.58;;
2868;SDS011;1442;47.448;8.582;2024-02-26T06:58:55;5.22;;;1.50;;
2868;SDS011;1442;47.448;8.582;2024-02-26T07:01:21;2.72;;;1.73;;
2868;SDS011;1442;47.448;8.582;2024-02-26T07:03:48;4.88;;;2.03;;
2868;SDS011;1442;47.448;8.582;2024-02-26T07:06:15;2.03;;;1.40;;
2868;SDS011;1442;47.448;8.582;2024-02-26T07:08:41;3.03;;;1.50;;
2868;SDS011;1442;47.448;8.582;2024-02-26T07:11:08;2.22;;;1.52;;
2868;SDS011;1442;47.448;8.582;2024-02-26T07:13:37;2.80;;;1.30;;
2868;SDS011;1442;47.448;8.582;2024-02-26T07:16:04;2.67;;;1.70;;
2868;SDS011;1442;47.448;8.582;2024-02-26T07:18:32;3.83;;;1.63;;
2868;SDS011;1442;47.448;8.582;2024-02-26T07:21:01;3.28;;;1.80;;
2868;SDS011;1442;47.448;8.582;2024-02-26T07:23:28;4.70;;;2.33;;
2868;SDS011;1442;47.448;8.582;2024-02-26T07:25:55;4.20;;;2.03;;
2868;SDS011;1442;47.448;8.582;2024-02-26T07:28:21;5.43;;;1.85;;
2868;SDS011;1442;47.448;8.582;2024-02-26T07:30:50;7.93;;;1.75;;
2868;SDS011;1442;47.448;8.582;2024-02-26T07:33:16;10.02;;;2.00;;
2868;SDS011;1442;47.448;8.582;2024-02-26T07:35:43;4.80;;;2.28;;
2868;SDS011;1442;47.448;8.582;2024-02-26T07:38:10;9.70;;;2.35;;
2868;SDS011;1442;47.448;8.582;2024-02-26T07:40:38;2.58;;;1.73;;
2868;SDS011;1442;47.448;8.582;2024-02-26T07:43:05;5.35;;;1.80;;
2868;SDS011;1442;47.448;8.582;2024-02-26T07:45:31;5.07;;;1.95;;
2868;SDS011;1442;47.448;8.582;2024-02-26T07:48:00;6.55;;;1.80;;
2868;SDS011;1442;47.448;8.582;2024-02-26T07:50:26;5.88;;;1.92;;
2868;SDS011;1442;47.448;8.582;2024-02-26T07:52:53;3.45;;;1.73;;
2868;SDS011;1442;47.448;8.582;2024-02-26T07:55:20;3.00;;;1.58;;
2868;SDS011;1442;47.448;8.582;2024-02-26T07:57:48;3.38;;;2.05;;
2868;SDS011;1442;47.448;8.582;2024-02-26T08:00:14;4.45;;;1.85;;
2868;SDS011;1442;47.448;8.582;2024-02-26T08:02:42;4.32;;;1.70;;
2868;SDS011;1442;47.448;8.582;2024-02-26T08:05:10;2.78;;;1.90;;
2868;SDS011;1442;47.448;8.582;2024-02-26T08:07:37;5.68;;;2.00;;
2868;SDS011;1442;47.448;8.582;2024-02-26T08:10:04;3.78;;;1.90;;
2868;SDS011;1442;47.448;8.582;2024-02-26T08:12:31;2.78;;;1.83;;
2868;SDS011;1442;47.448;8.582;2024-02-26T08:14:58;2.65;;;1.73;;
2868;SDS011;1442;47.448;8.582;2024-02-26T08:17:26;3.05;;;1.60;;
2868;SDS011;1442;47.448;8.582;2024-02-26T08:19:53;3.95;;;1.80;;
2868;SDS011;1442;47.448;8.582;2024-02-26T08:22:21;3.90;;;1.80;;
2868;SDS011;1442;47.448;8.582;2024-02-26T08:24:48;3.00;;;1.60;;
2868;SDS011;1442;47.448;8.582;2024-02-26T08:27:14;3.53;;;1.40;;
2868;SDS011;1442;47.448;8.582;2024-02-26T08:29:41;2.60;;;1.70;;
2868;SDS011;1442;47.448;8.582;2024-02-26T08:32:08;1.73;;;1.48;;
2868;SDS011;1442;47.448;8.582;2024-02-26T08:34:35;2.88;;;1.38;;
2868;SDS011;1442;47.448;8.582;2024-02-26T08:37:02;2.25;;;1.20;;
2868;SDS011;1442;47.448;8.582;2024-02-26T08:39:30;0.77;;;0.77;;
2868;SDS011;1442;47.448;8.582;2024-02-26T08:41:57;2.00;;;1.38;;
2868;SDS011;1442;47.448;8.582;2024-02-26T08:44:23;1.67;;;1.20;;
2868;SDS011;1442;47.448;8.582;2024-02-26T08:46:51;1.45;;;1.10;;
2868;SDS011;1442;47.448;8.582;2024-02-26T08:49:18;2.33;;;1.40;;
2868;SDS011;1442;47.448;8.582;2024-02-26T08:51:44;3.97;;;1.40;;
2868;SDS011;1442;47.448;8.582;2024-02-26T08:54:11;2.25;;;1.45;;
2868;SDS011;1442;47.448;8.582;2024-02-26T08:56:39;5.60;;;1.50;;
2868;SDS011;1442;47.448;8.582;2024-02-26T08:59:06;1.35;;;1.20;;
2868;SDS011;1442;47.448;8.582;2024-02-26T09:01:33;3.15;;;1.25;;
2868;SDS011;1442;47.448;8.582;2024-02-26T09:03:59;1.83;;;1.50;;
2868;SDS011;1442;47.448;8.582;2024-02-26T09:06:26;2.72;;;1.20;;
2868;SDS011;1442;47.448;8.582;2024-02-26T09:08:54;1.35;;;1.23;;
2868;SDS011;1442;47.448;8.582;2024-02-26T09:11:21;1.98;;;1.10;;
2868;SDS011;1442;47.448;8.582;2024-02-26T09:13:49;1.35;;;1.17;;
2868;SDS011;1442;47.448;8.582;2024-02-26T09:16:16;1.10;;;0.90;;
2868;SDS011;1442;47.448;8.582;2024-02-26T09:18:42;1.00;;;0.80;;
2868;SDS011;1442;47.448;8.582;2024-02-26T09:21:09;1.20;;;1.05;;
2868;SDS011;1442;47.448;8.582;2024-02-26T09:23:36;3.10;;;1.30;;
2868;SDS011;1442;47.448;8.582;2024-02-26T09:26:04;1.40;;;1.08;;
2868;SDS011;1442;47.448;8.582;2024-02-26T09:28:31;1.83;;;1.17;;
2868;SDS011;1442;47.448;8.582;2024-02-26T09:31:03;1.42;;;1.20;;
2868;SDS011;1442;47.448;8.582;2024-02-26T09:33:31;4.05;;;0.93;;
2868;SDS011;1442;47.448;8.582;2024-02-26T09:35:58;1.88;;;1.30;;
2868;SDS011;1442;47.448;8.582;2024-02-26T09:38:25;4.07;;;1.40;;
2868;SDS011;1442;47.448;8.582;2024-02-26T09:40:52;2.50;;;1.08;;
2868;SDS011;1442;47.448;8.582;2024-02-26T09:43:20;1.95;;;1.20;;
2868;SDS011;1442;47.448;8.582;2024-02-26T09:45:49;2.22;;;1.20;;
2868;SDS011;1442;47.448;8.582;2024-02-26T09:48:18;2.35;;;1.38;;
2868;SDS011;1442;47.448;8.582;2024-02-26T09:50:46;3.22;;;1.38;;
2868;SDS011;1442;47.448;8.582;2024-02-26T09:53:13;1.40;;;1.20;;
2868;SDS011;1442;47.448;8.582;2024-02-26T09:55:40;8.20;;;1.52;;
2868;SDS011;1442;47.448;8.582;2024-02-26T09:58:06;3.78;;;1.40;;
2868;SDS011;1442;47.448;8.582;2024-02-26T10:00:34;5.13;;;1.40;;
2868;SDS011;1442;47.448;8.582;2024-02-26T10:03:04;3.33;;;1.40;;
2868;SDS011;1442;47.448;8.582;2024-02-26T10:05:33;1.63;;;1.48;;
2868;SDS011;1442;47.448;8.582;2024-02-26T10:08:01;4.22;;;1.67;;
2868;SDS011;1442;47.448;8.582;2024-02-26T10:10:29;2.88;;;1.50;;
2868;SDS011;1442;47.448;8.582;2024-02-26T10:12:56;3.42;;;1.27;;
2868;SDS011;1442;47.448;8.582;2024-02-26T10:15:24;5.32;;;1.67;;
2868;SDS011;1442;47.448;8.582;2024-02-26T10:17:51;2.15;;;1.27;;
2868;SDS011;1442;47.448;8.582;2024-02-26T10:20:17;2.22;;;1.80;;
2868;SDS011;1442;47.448;8.582;2024-02-26T10:22:48;3.65;;;1.35;;
2868;SDS011;1442;47.448;8.582;2024-02-26T10:25:15;3.22;;;1.60;;
2868;SDS011;1442;47.448;8.582;2024-02-26T10:27:42;3.95;;;1.90;;
2868;SDS011;1442;47.448;8.582;2024-02-26T10:30:16;2.45;;;1.60;;
2868;SDS011;1442;47.448;8.582;2024-02-26T10:32:44;3.25;;;1.63;;
2868;SDS011;1442;47.448;8.582;2024-02-26T10:35:12;5.82;;;1.38;;
2868;SDS011;1442;47.448;8.582;2024-02-26T10:37:39;4.38;;;1.27;;
2868;SDS011;1442;47.448;8.582;2024-02-26T10:40:08;3.42;;;1.58;;
2868;SDS011;1442;47.448;8.582;2024-02-26T10:42:36;4.45;;;1.42;;
2868;SDS011;1442;47.448;8.582;2024-02-26T10:45:04;1.85;;;1.50;;
2868;SDS011;1442;47.448;8.582;2024-02-26T10:47:31;1.80;;;1.42;;
2868;SDS011;1442;47.448;8.582;2024-02-26T10:49:59;3.05;;;1.42;;
2868;SDS011;1442;47.448;8.582;2024-02-26T10:52:27;2.00;;;1.63;;
2868;SDS011;1442;47.448;8.582;2024-02-26T10:54:58;6.88;;;1.95;;
2868;SDS011;1442;47.448;8.582;2024-02-26T10:57:31;2.65;;;1.60;;
2868;SDS011;1442;47.448;8.582;2024-02-26T10:59:59;2.17;;;1.27;;
2868;SDS011;1442;47.448;8.582;2024-02-26T11:02:29;1.85;;;1.48;;
2868;SDS011;1442;47.448;8.582;2024-02-26T11:04:58;3.60;;;1.40;;
2868;SDS011;1442;47.448;8.582;2024-02-26T11:07:26;2.45;;;1.95;;
2868;SDS011;1442;47.448;8.582;2024-02-26T11:09:53;1.77;;;1.38;;
2868;SDS011;1442;47.448;8.582;2024-02-26T11:12:22;3.00;;;1.65;;
2868;SDS011;1442;47.448;8.582;2024-02-26T11:14:51;2.35;;;1.58;;
2868;SDS011;1442;47.448;8.582;2024-02-26T11:17:21;3.05;;;1.80;;
2868;SDS011;1442;47.448;8.582;2024-02-26T11:19:51;2.70;;;1.65;;
2868;SDS011;1442;47.448;8.582;2024-02-26T11:22:21;6.35;;;3.00;;
2868;SDS011;1442;47.448;8.582;2024-02-26T11:24:48;4.55;;;2.03;;
2868;SDS011;1442;47.448;8.582;2024-02-26T11:27:15;3.25;;;1.63;;
2868;SDS011;1442;47.448;8.582;2024-02-26T11:29:47;4.80;;;1.52;;
2868;SDS011;1442;47.448;8.582;2024-02-26T11:32:16;3.13;;;1.80;;
2868;SDS011;1442;47.448;8.582;2024-02-26T11:34:43;4.43;;;1.98;;
2868;SDS011;1442;47.448;8.582;2024-02-26T11:37:11;10.60;;;4.10;;
2868;SDS011;1442;47.448;8.582;2024-02-26T11:39:39;9.55;;;4.63;;
2868;SDS011;1442;47.448;8.582;2024-02-26T11:42:06;4.63;;;2.92;;
2868;SDS011;1442;47.448;8.582;2024-02-26T11:44:34;4.28;;;2.00;;
2868;SDS011;1442;47.448;8.582;2024-02-26T11:47:09;2.63;;;1.77;;
2868;SDS011;1442;47.448;8.582;2024-02-26T11:49:38;4.13;;;1.50;;
2868;SDS011;1442;47.448;8.582;2024-02-26T11:52:06;2.83;;;1.50;;
2868;SDS011;1442;47.448;8.582;2024-02-26T11:57:23;1.67;;;1.17;;
2868;SDS011;1442;47.448;8.582;2024-02-26T11:59:51;1.90;;;1.48;;
2868;SDS011;1442;47.448;8.582;2024-02-26T12:05:06;2.80;;;1.58;;
2868;SDS011;1442;47.448;8.582;2024-02-26T12:07:36;5.53;;;1.55;;
2868;SDS011;1442;47.448;8.582;2024-02-26T12:10:15;3.20;;;1.80;;
2868;SDS011;1442;47.448;8.582;2024-02-26T12:12:43;2.47;;;1.45;;
2868;SDS011;1442;47.448;8.582;2024-02-26T12:15:11;3.95;;;1.60;;
2868;SDS011;1442;47.448;8.582;2024-02-26T12:17:37;3.20;;;1.60;;
2868;SDS011;1442;47.448;8.582;2024-02-26T12:20:12;5.60;;;1.77;;
2868;SDS011;1442;47.448;8.582;2024-02-26T12:22:40;4.05;;;1.35;;
2868;SDS011;1442;47.448;8.582;2024-02-26T12:25:08;2.25;;;1.48;;
2868;SDS011;1442;47.448;8.582;2024-02-26T12:27:35;4.68;;;1.48;;
2868;SDS011;1442;47.448;8.582;2024-02-26T12:30:02;1.77;;;1.45;;
2868;SDS011;1442;47.448;8.582;2024-02-26T12:32:29;2.58;;;1.92;;
2868;SDS011;1442;47.448;8.582;2024-02-26T12:34:56;3.88;;;1.77;;
2868;SDS011;1442;47.448;8.582;2024-02-26T12:37:24;6.32;;;1.60;;
2868;SDS011;1442;47.448;8.582;2024-02-26T12:39:52;3.40;;;1.52;;
2868;SDS011;1442;47.448;8.582;2024-02-26T12:42:18;3.22;;;1.50;;
2868;SDS011;1442;47.448;8.582;2024-02-26T12:44:46;4.72;;;1.90;;
2868;SDS011;1442;47.448;8.582;2024-02-26T12:47:12;3.45;;;1.45;;
2868;SDS011;1442;47.448;8.582;2024-02-26T12:49:42;2.20;;;1.67;;
2868;SDS011;1442;47.448;8.582;2024-02-26T12:52:09;3.40;;;1.67;;
2868;SDS011;1442;47.448;8.582;2024-02-26T12:54:38;3.35;;;2.08;;
2868;SDS011;1442;47.448;8.582;2024-02-26T12:57:06;4.55;;;1.77;;
2868;SDS011;1442;47.448;8.582;2024-02-26T12:59:34;2.00;;;1.63;;
2868;SDS011;1442;47.448;8.582;2024-02-26T13:02:02;3.05;;;1.60;;
2868;SDS011;1442;47.448;8.582;2024-02-26T13:04:30;2.00;;;1.30;;
2868;SDS011;1442;47.448;8.582;2024-02-26T13:06:57;3.33;;;1.63;;
2868;SDS011;1442;47.448;8.582;2024-02-26T13:09:27;4.65;;;1.65;;
2868;SDS011;1442;47.448;8.582;2024-02-26T13:11:56;4.40;;;1.75;;
2868;SDS011;1442;47.448;8.582;2024-02-26T13:14:24;4.82;;;2.20;;
2868;SDS011;1442;47.448;8.582;2024-02-26T13:16:54;4.43;;;1.77;;
2868;SDS011;1442;47.448;8.582;2024-02-26T13:19:21;4.70;;;2.00;;
2868;SDS011;1442;47.448;8.582;2024-02-26T13:21:48;3.42;;;1.77;;
2868;SDS011;1442;47.448;8.582;2024-02-26T13:24:15;3.63;;;1.77;;
2868;SDS011;1442;47.448;8.582;2024-02-26T13:26:43;3.17;;;1.92;;
2868;SDS011;1442;47.448;8.582;2024-02-26T13:29:17;7.80;;;1.70;;
2868;SDS011;1442;47.448;8.582;2024-02-26T13:31:44;9.02;;;2.10;;
2868;SDS011;1442;47.448;8.582;2024-02-26T13:34:11;2.55;;;1.80;;
2868;SDS011;1442;47.448;8.582;2024-02-26T13:36:48;3.50;;;1.80;;
2868;SDS011;1442;47.448;8.582;2024-02-26T13:39:20;11.18;;;1.80;;
2868;SDS011;1442;47.448;8.582;2024-02-26T13:41:48;2.40;;;1.83;;
2868;SDS011;1442;47.448;8.582;2024-02-26T13:44:15;3.42;;;2.00;;
2868;SDS011;1442;47.448;8.582;2024-02-26T13:46:43;5.70;;;2.08;;
2868;SDS011;1442;47.448;8.582;2024-02-26T13:49:10;1.92;;;1.70;;
2868;SDS011;1442;47.448;8.582;2024-02-26T13:51:37;2.22;;;1.75;;
2868;SDS011;1442;47.448;8.582;2024-02-26T13:54:03;3.13;;;2.00;;
2868;SDS011;1442;47.448;8.582;2024-02-26T13:56:30;3.08;;;1.95;;
2868;SDS011;1442;47.448;8.582;2024-02-26T13:58:57;2.83;;;1.98;;
2868;SDS011;1442;47.448;8.582;2024-02-26T14:01:24;5.75;;;1.75;;
2868;SDS011;1442;47.448;8.582;2024-02-26T14:03:53;5.82;;;2.50;;
2868;SDS011;1442;47.448;8.582;2024-02-26T14:06:22;4.20;;;3.28;;
2868;SDS011;1442;47.448;8.582;2024-02-26T14:08:49;3.95;;;2.85;;
2868;SDS011;1442;47.448;8.582;2024-02-26T14:11:16;3.60;;;2.55;;
2868;SDS011;1442;47.448;8.582;2024-02-26T14:13:42;2.90;;;2.25;;
2868;SDS011;1442;47.448;8.582;2024-02-26T14:16:11;4.30;;;2.08;;
2868;SDS011;1442;47.448;8.582;2024-02-26T14:18:38;2.22;;;1.40;;
2868;SDS011;1442;47.448;8.582;2024-02-26T14:21:07;2.30;;;1.45;;
2868;SDS011;1442;47.448;8.582;2024-02-26T14:23:34;2.90;;;1.83;;
2868;SDS011;1442;47.448;8.582;2024-02-26T14:26:02;3.13;;;2.00;;
2868;SDS011;1442;47.448;8.582;2024-02-26T14:28:29;3.28;;;2.00;;
2868;SDS011;1442;47.448;8.582;2024-02-26T14:30:57;2.70;;;1.48;;
2868;SDS011;1442;47.448;8.582;2024-02-26T14:33:23;2.20;;;1.60;;
2868;SDS011;1442;47.448;8.582;2024-02-26T14:35:50;4.63;;;1.75;;
2868;SDS011;1442;47.448;8.582;2024-02-26T14:38:18;3.63;;;1.92;;
2868;SDS011;1442;47.448;8.582;2024-02-26T14:40:45;5.90;;;1.98;;
2868;SDS011;1442;47.448;8.582;2024-02-26T14:43:11;2.92;;;1.50;;
2868;SDS011;1442;47.448;8.582;2024-02-26T14:45:38;2.70;;;1.65;;
2868;SDS011;1442;47.448;8.582;2024-02-26T14:48:05;2.08;;;1.85;;
2868;SDS011;1442;47.448;8.582;2024-02-26T14:50:33;2.45;;;1.80;;
2868;SDS011;1442;47.448;8.582;2024-02-26T14:53:00;3.85;;;2.17;;
2868;SDS011;1442;47.448;8.582;2024-02-26T14:55:28;3.17;;;1.27;;
2868;SDS011;1442;47.448;8.582;2024-02-26T14:57:55;4.38;;;1.90;;
2868;SDS011;1442;47.448;8.582;2024-02-26T15:00:22;2.25;;;1.60;;
2868;SDS011;1442;47.448;8.582;2024-02-26T15:02:49;4.00;;;1.83;;
2868;SDS011;1442;47.448;8.582;2024-02-26T15:05:16;2.75;;;1.92;;
2868;SDS011;1442;47.448;8.582;2024-02-26T15:07:44;2.28;;;1.58;;
2868;SDS011;1442;47.448;8.582;2024-02-26T15:10:11;2.70;;;1.60;;
2868;SDS011;1442;47.448;8.582;2024-02-26T15:12:39;1.90;;;1.67;;
2868;SDS011;1442;47.448;8.582;2024-02-26T15:15:07;3.20;;;1.77;;
2868;SDS011;1442;47.448;8.582;2024-02-26T15:17:34;4.32;;;1.67;;
2868;SDS011;1442;47.448;8.582;2024-02-26T15:20:01;2.80;;;1.60;;
2868;SDS011;1442;47.448;8.582;2024-02-26T15:22:27;3.35;;;1.35;;